Texas Lake Levels

Lake Levels in Texas, United States

Lake Name Current
Level
Full Pool +/-
Full Pool
Reading
Date – Time
Alan Henry (TX) 2,215.46 2,224.00 -8.54 12/18/2018  9:30 PM
Amistad (TX) 1,091.87 1,117.00 -25.13 12/18/2018  10:15 PM
Amon Carter (TX) 920.62 920.00 0.62 12/18/2018  10:00 PM
Aquilla (TX) 537.81 537.50 0.31 12/18/2018  5:30 PM
Arlington (TX) 550.10 550.00 0.10 12/18/2018  3:15 PM
Arrowhead (TX) 926.42 926.00 0.42 12/18/2018  10:00 PM
Athens (TX) 440.44 440.00 0.44 12/18/2018  10:30 PM
Austin (TX) 492.47 492.80 -0.33 12/18/2018  10:00 PM
Bardwell (TX) 421.82 421.00 0.82 12/18/2018  7:30 PM
Belton (TX) 596.24 594.00 2.24 12/18/2018  9:00 PM
Benbrook (TX) 694.83 694.00 0.83 12/18/2018  10:00 PM
Bob Sandlin (TX) 337.56 337.50 0.06 12/18/2018  9:50 AM
Bonham (TX) 565.29 565.00 0.29 12/18/2018  10:00 PM
Brady Creek (TX) 1,743.34 1,743.00 0.34 12/18/2018  10:45 PM
Bridgeport (TX) 827.60 836.00 -8.40 12/18/2018  10:00 PM
Brownwood (TX) 1,425.25 1,425.00 0.25 12/18/2018  9:30 PM
Buchanan (TX) 1,018.04 1,020.50 -2.46 12/18/2018  10:05 AM
Caddo (LA TX) 170.85 168.50 2.35 12/18/2018  8:00 AM
Canyon (TX) 909.31 909.00 0.31 12/18/2018  10:15 PM
Cedar Creek (TX) 322.02 322.00 0.02 12/18/2018  2:45 PM
Champion Creek (TX) 2,073.69 2,083.00 -9.31 12/18/2018  8:03 AM
Cherokee (TX) 280.47 280.00 0.47 12/18/2018  9:45 PM
Choke Canyon (TX) 206.76 220.50 -13.74 12/18/2018  7:30 AM
Cisco (TX) 1,518.29 1,520.00 -1.71 12/19/2018  12:30 AM
Coleman (TX) 1,717.95 1,718.00 -0.05 12/18/2018  10:30 PM
Coleto Creek (TX) 98.37 98.28 0.09 12/18/2018  6:00 PM
Colorado City (TX) 2,058.09 2,070.20 -12.11 12/18/2018  8:03 AM
Conroe (TX) 201.10 201.00 0.10 12/18/2018  7:45 PM
Corpus Christi (TX) 94.16 94.00 0.16 12/18/2018  8:25 AM
E. V. Spence (TX) 1,861.15 1,898.00 -36.85 12/18/2018  10:00 PM
Eagle Mountain (TX) 649.35 649.00 0.35 12/18/2018  10:00 PM
Falcon (TX) 279.04 301.20 -22.16 12/18/2018  9:15 PM
Fork (TX) 402.75 403.00 -0.25 12/18/2018  10:30 PM
Georgetown (TX) 793.47 791.00 2.47 12/18/2018  9:00 PM
Graham (TX) 1,075.44 1,075.00 0.44 12/18/2018  9:00 PM
Granbury (TX) 692.69 693.00 -0.31 12/18/2018  9:30 PM
Granger (TX) 505.82 504.00 1.82 12/18/2018  9:00 PM
Grapevine (TX) 537.35 535.00 2.35 12/18/2018  10:45 PM
Hords Creek (TX) 1,892.94 1,900.00 -7.06 12/18/2018  8:30 PM
Houston (TX) 42.50 41.70 0.80 12/18/2018  10:30 PM
Hubbard Creek (TX) 1,183.39 1,183.00 0.39 12/18/2018  7:15 PM
Hubert M Moss (TX) 715.16 715.00 0.16 12/18/2018  8:15 PM
Inks (TX) 887.26 886.90 0.36 12/18/2018  8:00 PM
Jacksonville (TX) 422.22 422.00 0.22 12/17/2018  12:00 AM
JB Thomas (TX) 2,235.63 2,258.00 -22.37 12/18/2018  9:45 PM
Jim Chapman (TX) 440.35 440.00 0.35 12/18/2018  9:50 AM
Joe Pool (TX) 522.29 522.00 0.29 12/18/2018  9:00 PM
Kemp (TX) 1,144.44 1,144.00 0.44 12/18/2018  10:15 PM
Kickapoo (TX) 1,045.64 1,045.00 0.64 12/18/2018  9:00 PM
Lake O’ the Pines (TX) 230.87 228.50 2.37 12/18/2018  9:50 AM
Lavon (TX) 492.52 492.00 0.52 12/18/2018  10:00 PM
Leon (TX) 1,375.44 12/18/2018  8:45 PM
Lewisville (TX) 522.94 522.00 0.94 12/18/2018  10:30 PM
Limestone (TX) 363.09 363.00 0.09 12/18/2018  6:45 PM
Livingston (TX) 131.04 131.00 0.04 12/17/2018  12:00 AM
Lyndon B. Johnson (TX) 824.44 825.00 -0.56 12/18/2018  10:05 AM
MacKenzie (TX) 3,021.80 3,100.00 -78.20 12/18/2018  10:30 PM
Marble Falls (TX) 736.30 737.00 -0.70 12/18/2018  10:05 AM
Martin Creek (TX) 305.95 306.00 -0.05 12/18/2018  10:30 PM
Medina (TX) 1,062.56 1,062.00 0.56 12/18/2018  7:00 PM
Meredith (TX) 2,887.16 2,941.00 -53.84 12/18/2018  8:30 PM
Mexia (TX) 448.39 448.30 0.09 12/18/2018  7:15 PM
Millers Creek (TX) 1,335.21 1,334.00 1.21 12/18/2018  12:00 PM
Mineral Wells (TX) 863.74 863.00 0.74 12/19/2018  12:30 AM
Moss Creek (TX) 2,323.92 2,337.00 -13.08 12/18/2018  10:30 PM
Murvaul (TX) 265.89 265.50 0.39 12/18/2018  9:50 AM
Nacogdoches (TX) 279.58 279.00 0.58 12/18/2018  9:50 AM
Natural Dam Salt (TX) 2,447.29 2,457.00 -9.71 12/17/2018  12:00 AM
Navarro Mills (TX) 425.74 424.50 1.24 12/18/2018  10:00 PM
Nocona (TX) 827.95 827.00 0.95 12/18/2018  3:00 PM
O. C. Fisher (TX) 1,874.45 1,908.00 -33.55 12/18/2018  4:00 PM
O.H. Ivie (TX) 1,532.58 1,551.50 -18.92 12/18/2018  8:15 PM
Oak Creek (TX) 2,000.57 2,000.00 0.57 12/17/2018  12:00 AM
Palestine (TX) 345.63 345.00 0.63 12/18/2018  9:50 AM
Palo Pinto (TX) 867.26 867.00 0.26 12/18/2018  9:15 PM
Pat Cleburne (TX) 733.78 733.60 0.18 12/18/2018  10:00 PM
Pat Mayse (TX) 452.87 451.00 1.87 12/18/2018  9:50 AM
Phantom Hill (TX) 1,636.86 1,635.90 0.96 12/18/2018  8:30 PM
Possum Kingdom (TX) 998.40 1,000.00 -1.60 12/18/2018  8:18 AM
Proctor (TX) 1,164.12 1,162.00 2.12 12/18/2018  10:30 PM
Ray Hubbard (TX) 435.40 435.50 -0.10 12/18/2018  12:45 PM
Ray Roberts (TX) 635.23 632.50 2.73 12/18/2018  10:15 PM
Red Bluff (TX) 2,819.05 2,827.13 -8.08 12/18/2018  10:15 PM
Richland Chambers (TX) 315.17 315.00 0.17 12/17/2018  12:00 AM
Sam Rayburn (TX) 167.57 164.40 3.17 12/17/2018  12:00 AM
Somerville (TX) 243.22 238.00 5.22 12/18/2018  10:00 PM
Squaw Creek (TX) 775.57 775.00 0.57 12/18/2018  10:00 PM
Stamford (TX) 1,417.82 1,417.00 0.82 12/18/2018  10:30 PM
Steinhagen Reservoir (TX) 82.68 82.40 0.28 12/18/2018  10:00 PM
Stillhouse Hollow (TX) 628.11 622.00 6.11 12/18/2018  10:00 PM
Tawakoni (TX) 438.13 437.50 0.63 12/18/2018  10:15 PM
Texana (TX) 43.77 44.00 -0.23 12/18/2018  12:00 AM
Texoma (TX) 619.44 617.00 2.44 12/18/2018  9:00 AM
Toledo Bend (TX LA) 172.17 172.00 0.17 12/18/2018  10:45 PM
Travis (TX) 681.13 681.00 0.13 12/18/2018  10:00 PM
Twin Buttes (TX) 1,928.71 1,940.00 -11.29 12/17/2018  12:00 AM
Tyler (TX) 375.60 375.50 0.10 12/18/2018  9:50 AM
Waco (TX) 463.24 462.00 1.24 12/18/2018  8:15 PM
Waxahachie (TX) 531.92 12/17/2018  12:00 AM
Weatherford (TX) 896.00 896.00 -0.00 12/18/2018  10:45 PM
White River (TX) 2,349.17 12/18/2018  11:15 AM
Whitney (TX) 533.21 533.00 0.21 12/18/2018  10:15 PM
Worth (TX) 593.81 594.00 -0.19 12/18/2018  9:00 PM
Wright Patman (TX) 228.18 220.60 7.58 12/18/2018  9:50 AM


CURRENT DAILY STREAMFLOW CONDITIONS
High
90th percentile
75th – 89th percentile
25th – 74th percentile
10th – 24th percentile
10th percentile
Low
Not ranked

The colored dots on this map depict streamflow conditions as a percentile, which is computed from the period of record for the current day of the year. Only stations with at least 30 years of record are used. The gray circles indicate other stations that were not ranked in percentiles either because they have fewer than 30 years of record or because they report parameters other than streamflow. Some stations, for example, measure stage only.
U.S. Daily Streamflow Conditions